KGLS/GLS METAR and TAF weather

Enter ICAO airport designator
Station Type Date Time Source
KGLS METAR 2022/11/26 09:52 UTC NOAA

KGLS 260952Z AUTO 08013G24KT -RA OVC003 22/17 A2990 RMK AO2 PK WND 10026/0908 LTG DSNT W SLP124 P0001 T02170172 $


Station Type Date Time Source
KGLS Decoded METAR 2022/11/26 09:52 UTC NOAA

SCHOLES FIELD, TX, United States (KGLS) 29-16N 094-52W 6M
Nov 26, 2022 - 04:52 AM EST / 2022.11.26 0952 UTC
Wind: from the E (080 degrees) at 15 MPH (13 KT) gusting to 28 MPH (24 KT):0
Sky conditions: overcast
Weather: light rain; Lightning observed
Precipitation last hour: 0.01 inches
Temperature: 71.1 F (21.7 C)
Dew Point: 63.0 F (17.2 C)
Relative Humidity: 75%
Pressure (altimeter): 29.9 in. Hg (1012 hPa)
ob: KGLS 260952Z AUTO 08013G24KT -RA OVC003 22/17 A2990 RMK AO2 PK WND 10026/0908 LTG DSNT W SLP124 P0001 T02170172
cycle: 10

Station Type Date Time Source
KGLS TAF 2022/11/26 09:21 UTC NOAA

TAF
AMD KGLS 260913Z 2609/2706 08015G25KT 5SM SHRA VCTS BKN004CB
FM261100 12015G25KT 5SM SHRA BR VCTS OVC006CB
TEMPO 2611/2614 VRB15G25KT 2SM TSRA BKN006CB
FM261400 23015G25KT P6SM VCSH SCT007 BKN015
FM261900 26015G25KT P6SM SCT035

Example: see airport list